Terminal Aerodrome Forecast
Issued by NWS Quad Cities IA IL

Home | Current Version | Previous Version | Text Only | Print | Product List | Glossary On
Versions: 1 2 3 4 5 6 7 8 9 10 11 12 13 14 15 16
000
FTUS43 KDVN 192300
TAFMLI
TAF
KMLI 192320Z 2000/2024 19010KT P6SM BKN250
     FM200600 20011KT P6SM SCT060 BKN250
     FM201200 22010KT P6SM VCSH SCT030 BKN080
     FM201600 25011KT P6SM SCT015 BKN050
     FM202000 28012G20KT P6SM SCT050=

USA.gov is the U.S. government's official web portal to all federal, state and local government web resources and services.